createdAt,value
2017-09-30T00:00:31.205Z,0.00
2017-09-30T00:01:31.208Z,0.00
2017-09-30T00:02:31.211Z,0.00
2017-09-30T00:03:31.214Z,0.00
2017-09-30T00:04:31.220Z,0.00
2017-09-30T00:05:31.219Z,0.00
2017-09-30T00:06:31.222Z,0.00
2017-09-30T00:07:31.228Z,0.00
2017-09-30T00:08:31.231Z,0.00
2017-09-30T00:09:31.232Z,0.00
2017-09-30T00:10:31.234Z,0.00
2017-09-30T00:11:31.241Z,0.00
2017-09-30T00:12:31.241Z,0.00
2017-09-30T00:13:31.246Z,0.00
2017-09-30T00:14:31.246Z,0.00
2017-09-30T00:15:31.251Z,0.00
2017-09-30T00:16:31.252Z,0.00
2017-09-30T00:17:31.256Z,0.00
2017-09-30T00:18:31.260Z,0.00
2017-09-30T00:19:31.261Z,0.00
2017-09-30T00:20:31.265Z,0.00
2017-09-30T00:21:31.284Z,0.00
2017-09-30T00:22:31.272Z,0.00
2017-09-30T00:23:31.274Z,0.00
2017-09-30T00:24:31.276Z,0.00
2017-09-30T00:25:31.278Z,0.00
2017-09-30T00:26:31.282Z,0.00
2017-09-30T00:27:31.287Z,0.00
2017-09-30T00:28:31.287Z,0.00
2017-09-30T00:29:31.290Z,0.00
2017-09-30T00:30:31.295Z,0.00
2017-09-30T00:31:31.298Z,0.00
2017-09-30T00:32:31.298Z,0.00
2017-09-30T00:33:31.303Z,0.00
2017-09-30T00:34:31.306Z,0.00
2017-09-30T00:35:31.308Z,0.00
2017-09-30T00:36:31.311Z,0.00
2017-09-30T00:37:31.314Z,0.00
2017-09-30T00:38:31.325Z,0.00
2017-09-30T00:39:31.321Z,0.00
2017-09-30T00:40:31.323Z,0.00
2017-09-30T00:41:31.326Z,0.00
2017-09-30T00:42:31.329Z,0.00
2017-09-30T00:43:31.333Z,0.00
2017-09-30T00:44:31.335Z,0.00
2017-09-30T00:45:31.337Z,0.00
2017-09-30T00:46:31.342Z,0.00
2017-09-30T00:47:31.345Z,0.00
2017-09-30T00:48:31.346Z,0.00
2017-09-30T00:49:31.349Z,0.00
2017-09-30T00:50:31.353Z,0.00
2017-09-30T00:51:31.356Z,0.00
2017-09-30T00:52:31.358Z,0.00
2017-09-30T00:53:31.381Z,0.00
2017-09-30T00:54:31.365Z,0.00
2017-09-30T00:55:31.367Z,0.00
2017-09-30T00:56:31.370Z,0.00
2017-09-30T00:57:31.373Z,0.00
2017-09-30T00:58:31.377Z,0.00
2017-09-30T00:59:31.381Z,0.00
2017-09-30T01:00:31.382Z,0.00
2017-09-30T01:01:31.384Z,0.00
2017-09-30T01:02:31.388Z,0.00
2017-09-30T01:03:31.390Z,0.00
2017-09-30T01:04:31.392Z,0.00
2017-09-30T01:05:31.396Z,0.00
2017-09-30T01:06:31.399Z,0.00
2017-09-30T01:07:31.403Z,0.00
2017-09-30T01:08:31.404Z,0.00
2017-09-30T01:09:31.407Z,0.00
2017-09-30T01:10:31.413Z,0.00
2017-09-30T01:11:31.415Z,0.00
2017-09-30T01:12:31.414Z,0.00
2017-09-30T01:13:31.417Z,0.00
2017-09-30T01:14:31.421Z,0.00
2017-09-30T01:15:31.425Z,0.00
2017-09-30T01:16:31.426Z,0.00
2017-09-30T01:17:31.430Z,0.00
2017-09-30T01:18:31.440Z,0.00
2017-09-30T01:19:31.434Z,0.00
2017-09-30T01:20:31.438Z,0.00
2017-09-30T01:21:31.440Z,0.00
2017-09-30T01:22:31.443Z,0.00
2017-09-30T01:23:31.449Z,0.00
2017-09-30T01:24:31.449Z,0.00
2017-09-30T01:25:31.450Z,0.00
2017-09-30T01:26:31.454Z,0.00
2017-09-30T01:27:31.458Z,0.00
2017-09-30T01:28:31.472Z,0.00
2017-09-30T01:29:31.466Z,0.00
2017-09-30T01:30:31.465Z,0.00
2017-09-30T01:31:31.469Z,0.00
2017-09-30T01:32:31.471Z,0.00
2017-09-30T01:33:31.473Z,0.00
2017-09-30T01:34:31.485Z,0.00
2017-09-30T01:35:31.480Z,0.00
2017-09-30T01:36:31.482Z,0.00
2017-09-30T01:37:31.490Z,0.00
2017-09-30T01:38:31.488Z,0.00
2017-09-30T01:39:31.491Z,0.00
2017-09-30T01:40:31.495Z,0.00
2017-09-30T01:41:31.496Z,0.00
2017-09-30T01:42:31.500Z,0.00
2017-09-30T01:43:31.505Z,0.00
2017-09-30T01:44:31.504Z,0.00
2017-09-30T01:45:31.506Z,0.00
2017-09-30T01:46:31.510Z,0.00
2017-09-30T01:47:31.514Z,0.00
2017-09-30T01:48:31.516Z,0.00
2017-09-30T01:49:31.520Z,0.00
2017-09-30T01:50:31.523Z,0.00
2017-09-30T01:51:31.525Z,0.00
2017-09-30T01:52:31.528Z,0.00
2017-09-30T01:53:31.530Z,0.00
2017-09-30T01:54:31.534Z,0.00
2017-09-30T01:55:31.536Z,0.00
2017-09-30T01:56:31.537Z,0.00
2017-09-30T01:57:31.541Z,0.00
2017-09-30T01:58:31.545Z,0.00
2017-09-30T01:59:31.548Z,0.00
2017-09-30T02:00:31.551Z,0.00
2017-09-30T02:01:31.553Z,0.00
2017-09-30T02:02:31.559Z,0.00
2017-09-30T02:03:31.560Z,0.00
2017-09-30T02:04:31.561Z,0.00
2017-09-30T02:05:31.565Z,0.00
2017-09-30T02:06:31.567Z,0.00
2017-09-30T02:07:31.571Z,0.00
2017-09-30T02:08:31.574Z,0.00
2017-09-30T02:09:31.575Z,0.00
2017-09-30T02:10:31.581Z,0.00
2017-09-30T02:11:31.582Z,0.00
2017-09-30T02:12:31.584Z,0.00
2017-09-30T02:13:31.586Z,0.00
2017-09-30T02:14:31.590Z,0.00
2017-09-30T02:15:31.592Z,0.00
2017-09-30T02:16:31.596Z,0.00
2017-09-30T02:17:31.597Z,0.00
2017-09-30T02:18:31.600Z,0.00
2017-09-30T02:19:31.604Z,0.00
2017-09-30T02:20:31.606Z,0.00
2017-09-30T02:21:31.609Z,0.00
2017-09-30T02:22:31.612Z,0.00
2017-09-30T02:23:31.616Z,0.00
2017-09-30T02:24:31.619Z,0.00
2017-09-30T02:25:31.620Z,0.00
2017-09-30T02:26:31.629Z,0.00
2017-09-30T02:27:31.627Z,0.00
2017-09-30T02:28:31.627Z,0.00
2017-09-30T02:29:31.631Z,0.00
2017-09-30T02:30:31.635Z,0.00
2017-09-30T02:31:31.636Z,0.00
2017-09-30T02:32:31.641Z,0.00
2017-09-30T02:33:31.641Z,0.00
2017-09-30T02:34:31.646Z,0.00
2017-09-30T02:35:31.648Z,0.00
2017-09-30T02:36:31.649Z,0.00
2017-09-30T02:37:31.655Z,0.00
2017-09-30T02:38:31.656Z,0.00
2017-09-30T02:39:31.660Z,0.00
2017-09-30T02:40:31.660Z,0.00
2017-09-30T02:41:31.664Z,0.00
2017-09-30T02:42:31.672Z,0.00
2017-09-30T02:43:31.670Z,0.00
2017-09-30T02:44:31.672Z,0.00
2017-09-30T02:45:31.674Z,0.00
2017-09-30T02:46:31.676Z,0.00
2017-09-30T02:47:31.680Z,0.00
2017-09-30T02:48:31.682Z,0.00
2017-09-30T02:49:31.685Z,0.00
2017-09-30T02:50:31.690Z,0.00
2017-09-30T02:51:31.692Z,0.00
2017-09-30T02:52:31.694Z,0.00
2017-09-30T02:53:31.699Z,0.00
2017-09-30T02:54:31.699Z,0.00
2017-09-30T02:55:31.701Z,0.00
2017-09-30T02:56:31.703Z,0.00
2017-09-30T02:57:31.707Z,0.00
2017-09-30T02:58:31.709Z,0.00
2017-09-30T02:59:31.713Z,0.00
2017-09-30T03:00:31.712Z,0.00
2017-09-30T03:01:31.717Z,0.00
2017-09-30T03:02:31.718Z,0.00
2017-09-30T03:03:31.723Z,0.00
2017-09-30T03:04:31.723Z,0.00
2017-09-30T03:05:31.727Z,0.00
2017-09-30T03:06:31.734Z,0.00
2017-09-30T03:07:31.732Z,0.00
2017-09-30T03:08:31.734Z,0.00
2017-09-30T03:09:31.735Z,0.00
2017-09-30T03:10:31.740Z,0.00
2017-09-30T03:11:31.741Z,0.00
2017-09-30T03:12:31.744Z,0.00
2017-09-30T03:13:31.749Z,0.00
2017-09-30T03:14:31.749Z,0.00
2017-09-30T03:15:31.752Z,0.00
2017-09-30T03:16:31.753Z,0.00
2017-09-30T03:17:31.758Z,0.00
2017-09-30T03:18:31.759Z,0.00
2017-09-30T03:19:31.761Z,0.00
2017-09-30T03:20:31.763Z,0.00
2017-09-30T03:21:31.766Z,0.00
2017-09-30T03:22:31.770Z,0.00
2017-09-30T03:23:31.773Z,0.00
2017-09-30T03:24:31.773Z,0.00
2017-09-30T03:25:31.780Z,0.00
2017-09-30T03:26:31.778Z,0.00
2017-09-30T03:27:31.782Z,0.00
2017-09-30T03:28:31.783Z,0.00
2017-09-30T03:29:31.787Z,0.00
2017-09-30T03:30:31.790Z,0.00
2017-09-30T03:31:31.800Z,0.00
2017-09-30T03:32:31.794Z,0.00
2017-09-30T03:33:31.796Z,0.00
2017-09-30T03:34:31.800Z,0.00
2017-09-30T03:35:31.802Z,0.00
2017-09-30T03:36:31.804Z,0.00
2017-09-30T03:37:31.807Z,0.00
2017-09-30T03:38:31.809Z,0.00
2017-09-30T03:39:31.813Z,0.00
2017-09-30T03:40:31.813Z,0.00
2017-09-30T03:41:31.815Z,0.00
2017-09-30T03:42:31.828Z,0.00
2017-09-30T03:43:31.822Z,0.00
2017-09-30T03:44:31.823Z,0.00
2017-09-30T03:45:31.827Z,0.00
2017-09-30T03:46:31.829Z,0.00
2017-09-30T03:47:31.831Z,0.00
2017-09-30T03:48:31.833Z,0.00
2017-09-30T03:49:31.836Z,0.00
2017-09-30T03:50:31.838Z,0.00
2017-09-30T03:51:31.842Z,0.00
2017-09-30T03:52:31.843Z,0.00
2017-09-30T03:53:31.846Z,0.00
2017-09-30T03:54:31.847Z,0.00
2017-09-30T03:55:31.850Z,0.00
2017-09-30T03:56:31.851Z,0.00
2017-09-30T03:57:31.854Z,0.00
2017-09-30T03:58:31.858Z,0.00
2017-09-30T03:59:31.860Z,0.00
2017-09-30T04:00:31.862Z,0.00
2017-09-30T04:01:31.869Z,0.00
2017-09-30T04:02:31.867Z,0.00
2017-09-30T04:03:31.869Z,0.00
2017-09-30T04:04:31.871Z,0.00
2017-09-30T04:05:31.872Z,0.00
2017-09-30T04:06:31.878Z,0.00
2017-09-30T04:07:31.881Z,0.00
2017-09-30T04:08:31.880Z,0.00
2017-09-30T04:09:31.883Z,0.00
2017-09-30T04:10:31.892Z,0.00
2017-09-30T04:11:31.889Z,0.00
2017-09-30T04:12:31.890Z,0.00
2017-09-30T04:13:31.891Z,0.00
2017-09-30T04:14:31.895Z,0.00
2017-09-30T04:15:31.897Z,0.00
2017-09-30T04:16:31.900Z,0.00
2017-09-30T04:17:31.901Z,0.00
2017-09-30T04:18:31.904Z,0.00
2017-09-30T04:19:31.907Z,0.00
2017-09-30T04:20:31.907Z,0.00
2017-09-30T04:21:31.912Z,0.00
2017-09-30T04:22:31.912Z,0.00
2017-09-30T04:23:31.916Z,0.00
2017-09-30T04:24:31.918Z,0.00
2017-09-30T04:25:31.920Z,0.00
2017-09-30T04:26:31.921Z,0.00
2017-09-30T04:27:31.924Z,0.00
2017-09-30T04:28:31.926Z,0.00
2017-09-30T04:29:31.928Z,0.00
2017-09-30T04:30:31.930Z,0.00
2017-09-30T04:31:31.934Z,0.00
2017-09-30T04:32:31.936Z,0.00
2017-09-30T04:33:31.937Z,0.00
2017-09-30T04:34:31.941Z,0.00
2017-09-30T04:35:31.941Z,0.00
2017-09-30T04:36:31.944Z,0.00
2017-09-30T04:37:31.946Z,0.00
2017-09-30T04:38:31.949Z,0.00
2017-09-30T04:39:31.950Z,0.00
2017-09-30T04:40:31.952Z,0.00
2017-09-30T04:41:31.954Z,0.00
2017-09-30T04:42:31.957Z,0.00
2017-09-30T04:43:31.958Z,0.00
2017-09-30T04:44:31.962Z,0.00
2017-09-30T04:45:31.963Z,0.00
2017-09-30T04:46:31.967Z,0.00
2017-09-30T04:47:31.969Z,0.00
2017-09-30T04:48:31.970Z,0.00
2017-09-30T04:49:31.973Z,0.00
2017-09-30T04:50:31.975Z,0.00
2017-09-30T04:51:31.977Z,0.00
2017-09-30T04:52:31.980Z,0.00
2017-09-30T04:53:31.982Z,0.00
2017-09-30T04:54:31.983Z,0.00
2017-09-30T04:55:31.985Z,0.00
2017-09-30T04:56:31.987Z,0.00
2017-09-30T04:57:31.989Z,0.00
2017-09-30T04:58:31.991Z,0.00
2017-09-30T04:59:31.994Z,0.00
2017-09-30T05:00:31.999Z,0.00
2017-09-30T05:01:31.999Z,0.00
2017-09-30T05:02:32.000Z,0.00
2017-09-30T05:03:32.006Z,0.00
2017-09-30T05:04:32.004Z,4.00
2017-09-30T05:05:32.007Z,4.00
2017-09-30T05:06:32.010Z,4.00
2017-09-30T05:07:32.012Z,0.00
2017-09-30T05:08:32.014Z,4.00
2017-09-30T05:09:32.017Z,4.00
2017-09-30T05:10:32.018Z,8.00
2017-09-30T05:11:32.020Z,4.00
2017-09-30T05:12:32.026Z,4.00
2017-09-30T05:13:32.023Z,8.00
2017-09-30T05:14:32.025Z,8.00
2017-09-30T05:15:32.028Z,12.00
2017-09-30T05:16:32.030Z,12.00
2017-09-30T05:17:32.032Z,12.00
2017-09-30T05:18:32.035Z,16.00
2017-09-30T05:19:32.038Z,16.00
2017-09-30T05:20:32.043Z,20.00
2017-09-30T05:21:32.040Z,20.00
2017-09-30T05:22:32.044Z,28.00
2017-09-30T05:23:32.045Z,36.00
2017-09-30T05:24:32.049Z,40.00
2017-09-30T05:25:32.049Z,44.00
2017-09-30T05:26:32.052Z,44.00
2017-09-30T05:27:32.053Z,48.00
2017-09-30T05:28:32.057Z,52.00
2017-09-30T05:29:32.057Z,64.00
2017-09-30T05:30:32.062Z,76.00
2017-09-30T05:31:32.068Z,84.00
2017-09-30T05:32:32.064Z,84.00
2017-09-30T05:33:32.067Z,92.00
2017-09-30T05:34:32.068Z,120.00
2017-09-30T05:35:32.077Z,140.00
2017-09-30T05:36:32.074Z,160.00
2017-09-30T05:37:32.075Z,168.00
2017-09-30T05:38:32.078Z,188.00
2017-09-30T05:39:32.081Z,196.00
2017-09-30T05:40:32.082Z,208.00
2017-09-30T05:41:32.085Z,232.00
2017-09-30T05:42:32.086Z,236.00
2017-09-30T05:43:32.090Z,248.00
2017-09-30T05:44:32.090Z,288.00
2017-09-30T05:45:32.093Z,308.00
2017-09-30T05:46:32.097Z,352.00
2017-09-30T05:47:32.097Z,380.00
2017-09-30T05:48:32.097Z,400.00
2017-09-30T05:49:32.100Z,408.00
2017-09-30T05:50:32.104Z,416.00
2017-09-30T05:51:32.105Z,452.00
2017-09-30T05:52:32.113Z,500.00
2017-09-30T05:53:32.110Z,524.00
2017-09-30T05:54:32.112Z,548.00
2017-09-30T05:55:32.114Z,564.00
2017-09-30T05:56:32.114Z,556.00
2017-09-30T05:57:32.123Z,540.00
2017-09-30T05:58:32.121Z,592.00
2017-09-30T05:59:32.123Z,672.00
2017-09-30T06:00:32.124Z,736.00
2017-09-30T06:01:32.127Z,752.00
2017-09-30T06:02:32.128Z,824.00
2017-09-30T06:03:32.130Z,748.00
2017-09-30T06:04:32.132Z,676.00
2017-09-30T06:05:32.134Z,676.00
2017-09-30T06:06:32.137Z,696.00
2017-09-30T06:07:32.139Z,688.00
2017-09-30T06:08:32.142Z,636.00
2017-09-30T06:09:32.147Z,604.00
2017-09-30T06:10:32.147Z,596.00
2017-09-30T06:11:32.147Z,544.00
2017-09-30T06:12:32.150Z,524.00
2017-09-30T06:13:32.151Z,496.00
2017-09-30T06:14:32.153Z,532.00
2017-09-30T06:15:32.157Z,512.00
2017-09-30T06:16:32.157Z,544.00
2017-09-30T06:17:32.160Z,568.00
2017-09-30T06:18:32.164Z,644.00
2017-09-30T06:19:32.165Z,708.00
2017-09-30T06:20:32.166Z,720.00
2017-09-30T06:21:32.169Z,716.00
2017-09-30T06:22:32.172Z,668.00
2017-09-30T06:23:32.174Z,632.00
2017-09-30T06:24:32.176Z,672.00
2017-09-30T06:25:32.177Z,672.00
2017-09-30T06:26:32.179Z,756.00
2017-09-30T06:27:32.183Z,824.00
2017-09-30T06:28:32.184Z,852.00
2017-09-30T06:29:32.187Z,852.00
2017-09-30T06:30:32.188Z,956.00
2017-09-30T06:31:32.192Z,936.00
2017-09-30T06:32:32.192Z,920.00
2017-09-30T06:33:32.195Z,928.00
2017-09-30T06:34:32.196Z,956.00
2017-09-30T06:35:32.201Z,952.00
2017-09-30T06:36:32.201Z,1028.00
2017-09-30T06:37:32.235Z,1148.00
2017-09-30T06:38:32.207Z,1180.00
2017-09-30T06:39:32.210Z,1228.00
2017-09-30T06:40:32.211Z,1244.00
2017-09-30T06:41:32.214Z,1292.00
2017-09-30T06:42:32.216Z,1300.00
2017-09-30T06:43:32.219Z,1256.00
2017-09-30T06:44:32.220Z,1308.00
2017-09-30T06:45:32.221Z,1516.00
2017-09-30T06:46:32.225Z,1728.00
2017-09-30T06:47:32.228Z,1832.00
2017-09-30T06:48:32.229Z,2040.00
2017-09-30T06:49:32.232Z,2032.00
2017-09-30T06:50:32.234Z,2084.00
2017-09-30T06:51:32.237Z,2164.00
2017-09-30T06:52:32.242Z,2308.00
2017-09-30T06:53:32.257Z,2264.00
2017-09-30T06:54:32.245Z,2212.00
2017-09-30T06:55:32.246Z,2024.00
2017-09-30T06:56:32.248Z,1888.00
2017-09-30T06:57:32.254Z,1812.00
2017-09-30T06:58:32.254Z,1692.00
2017-09-30T06:59:32.283Z,1596.00
2017-09-30T07:00:32.259Z,1472.00
2017-09-30T07:01:32.262Z,1516.00
2017-09-30T07:02:32.265Z,1572.00
2017-09-30T07:03:32.268Z,1568.00
2017-09-30T07:04:32.270Z,1532.00
2017-09-30T07:05:32.273Z,1500.00
2017-09-30T07:06:32.275Z,1520.00
2017-09-30T07:07:32.277Z,1520.00
2017-09-30T07:08:32.281Z,1472.00
2017-09-30T07:09:32.283Z,1480.00
2017-09-30T07:10:32.286Z,1500.00
2017-09-30T07:11:32.289Z,1504.00
2017-09-30T07:12:32.290Z,1568.00
2017-09-30T07:13:32.293Z,1620.00
2017-09-30T07:14:32.297Z,1768.00
2017-09-30T07:15:32.299Z,1848.00
2017-09-30T07:16:32.303Z,1916.00
2017-09-30T07:17:32.305Z,2144.00
2017-09-30T07:18:32.308Z,2232.00
2017-09-30T07:19:32.313Z,2172.00
2017-09-30T07:20:32.312Z,2108.00
2017-09-30T07:21:32.316Z,1948.00
2017-09-30T07:22:32.318Z,2016.00
2017-09-30T07:23:32.323Z,1988.00
2017-09-30T07:24:32.325Z,2064.00
2017-09-30T07:25:32.328Z,1984.00
2017-09-30T07:26:32.331Z,1744.00
2017-09-30T07:27:32.333Z,1756.00
2017-09-30T07:28:32.335Z,1728.00
2017-09-30T07:29:32.338Z,1716.00
2017-09-30T07:30:32.345Z,1680.00
2017-09-30T07:31:32.353Z,1536.00
2017-09-30T07:32:32.347Z,1452.00
2017-09-30T07:33:32.349Z,1444.00
2017-09-30T07:34:32.354Z,1360.00
2017-09-30T07:35:32.357Z,1292.00
2017-09-30T07:36:32.358Z,1296.00
2017-09-30T07:37:32.361Z,1300.00
2017-09-30T07:38:32.364Z,1308.00
2017-09-30T07:39:32.368Z,1296.00
2017-09-30T07:40:32.369Z,1292.00
2017-09-30T07:41:32.374Z,1376.00
2017-09-30T07:42:32.376Z,1456.00
2017-09-30T07:43:32.379Z,1520.00
2017-09-30T07:44:32.382Z,1632.00
2017-09-30T07:45:32.385Z,1840.00
2017-09-30T07:46:32.388Z,2100.00
2017-09-30T07:47:32.390Z,2392.00
2017-09-30T07:48:32.392Z,2764.00
2017-09-30T07:49:32.395Z,3116.00
2017-09-30T07:50:32.399Z,3292.00
2017-09-30T07:51:32.401Z,3516.00
2017-09-30T07:52:32.403Z,3556.00
2017-09-30T07:53:32.407Z,3416.00
2017-09-30T07:54:32.409Z,3004.00
2017-09-30T07:55:32.414Z,2624.00
2017-09-30T07:56:32.413Z,2360.00
2017-09-30T07:57:32.419Z,2304.00
2017-09-30T07:58:32.422Z,2312.00
2017-09-30T07:59:32.424Z,2456.00
2017-09-30T08:00:32.425Z,2748.00
2017-09-30T08:01:32.429Z,3176.00
2017-09-30T08:02:32.434Z,3516.00
2017-09-30T08:03:32.436Z,3868.00
2017-09-30T08:04:32.439Z,4316.00
2017-09-30T08:05:32.441Z,4548.00
2017-09-30T08:06:32.445Z,4496.00
2017-09-30T08:07:32.448Z,4164.00
2017-09-30T08:08:32.449Z,4008.00
2017-09-30T08:09:32.454Z,3832.00
2017-09-30T08:10:32.456Z,3768.00
2017-09-30T08:11:32.459Z,3648.00
2017-09-30T08:12:32.462Z,3604.00
2017-09-30T08:13:32.467Z,3568.00
2017-09-30T08:14:32.469Z,3668.00
2017-09-30T08:15:32.472Z,3760.00
2017-09-30T08:16:32.474Z,4008.00
2017-09-30T08:17:32.479Z,4564.00
2017-09-30T08:18:32.483Z,4956.00
2017-09-30T08:19:32.485Z,5156.00
2017-09-30T08:20:32.489Z,5292.00
2017-09-30T08:21:32.490Z,5692.00
2017-09-30T08:22:32.493Z,5600.00
2017-09-30T08:23:32.498Z,5588.00
2017-09-30T08:24:32.503Z,5508.00
2017-09-30T08:25:32.505Z,5172.00
2017-09-30T08:26:32.507Z,4636.00
2017-09-30T08:27:32.511Z,4664.00
2017-09-30T08:28:32.514Z,4880.00
2017-09-30T08:29:32.517Z,4768.00
2017-09-30T08:30:32.522Z,4500.00
2017-09-30T08:31:32.524Z,4492.00
2017-09-30T08:32:32.528Z,4544.00
2017-09-30T08:33:32.532Z,4424.00
2017-09-30T08:34:32.534Z,4500.00
2017-09-30T08:35:32.539Z,4464.00
2017-09-30T08:36:32.539Z,4400.00
2017-09-30T08:37:32.544Z,4356.00
2017-09-30T08:38:32.547Z,4316.00
2017-09-30T08:39:32.551Z,4396.00
2017-09-30T08:40:32.555Z,4408.00
2017-09-30T08:41:32.557Z,4432.00
2017-09-30T08:42:32.561Z,4252.00
2017-09-30T08:43:32.565Z,3936.00
2017-09-30T08:44:32.567Z,3748.00
2017-09-30T08:45:32.572Z,3908.00
2017-09-30T08:46:32.575Z,4368.00
2017-09-30T08:47:32.579Z,4740.00
2017-09-30T08:48:32.583Z,4664.00
2017-09-30T08:49:32.585Z,4268.00
2017-09-30T08:50:32.592Z,3788.00
2017-09-30T08:51:32.595Z,3356.00
2017-09-30T08:52:32.596Z,3052.00
2017-09-30T08:53:32.601Z,2900.00
2017-09-30T08:54:32.604Z,2880.00
2017-09-30T08:55:32.607Z,2864.00
2017-09-30T08:56:32.610Z,2756.00
2017-09-30T08:57:32.615Z,2572.00
2017-09-30T08:58:32.619Z,2400.00
2017-09-30T08:59:32.623Z,2344.00
2017-09-30T09:00:32.625Z,2380.00
2017-09-30T09:01:32.627Z,2456.00
2017-09-30T09:02:32.631Z,2548.00
2017-09-30T09:03:32.635Z,2624.00
2017-09-30T09:04:32.637Z,2632.00
2017-09-30T09:05:32.642Z,2572.00
2017-09-30T09:06:32.657Z,2592.00
2017-09-30T09:07:32.648Z,2768.00
2017-09-30T09:08:32.652Z,2920.00
2017-09-30T09:09:32.664Z,2972.00
2017-09-30T09:10:32.660Z,2832.00
2017-09-30T09:11:32.662Z,2636.00
2017-09-30T09:12:32.666Z,2528.00
2017-09-30T09:13:32.669Z,2368.00
2017-09-30T09:14:32.671Z,2220.00
2017-09-30T09:15:32.681Z,2260.00
2017-09-30T09:16:32.678Z,2380.00
2017-09-30T09:17:32.682Z,2364.00
2017-09-30T09:18:32.685Z,2224.00
2017-09-30T09:19:32.687Z,2200.00
2017-09-30T09:20:32.695Z,2408.00
2017-09-30T09:21:32.695Z,2788.00
2017-09-30T09:22:32.698Z,3172.00
2017-09-30T09:23:32.701Z,3388.00
2017-09-30T09:24:32.704Z,3416.00
2017-09-30T09:25:32.708Z,3404.00
2017-09-30T09:26:32.715Z,3416.00
2017-09-30T09:27:32.715Z,3472.00
2017-09-30T09:28:32.718Z,3524.00
2017-09-30T09:29:32.720Z,3576.00
2017-09-30T09:30:32.725Z,3632.00
2017-09-30T09:31:32.728Z,3664.00
2017-09-30T09:32:32.733Z,3644.00
2017-09-30T09:33:32.735Z,3620.00
2017-09-30T09:34:32.739Z,3704.00
2017-09-30T09:35:32.742Z,3900.00
2017-09-30T09:36:32.745Z,4096.00
2017-09-30T09:37:32.748Z,4280.00
2017-09-30T09:38:32.752Z,4420.00
2017-09-30T09:39:32.755Z,4464.00
2017-09-30T09:40:32.758Z,4400.00
2017-09-30T09:41:32.762Z,4256.00
2017-09-30T09:42:32.765Z,4108.00
2017-09-30T09:43:32.772Z,3952.00
2017-09-30T09:44:32.771Z,3780.00
2017-09-30T09:45:32.776Z,3608.00
2017-09-30T09:46:32.779Z,3444.00
2017-09-30T09:47:32.784Z,3280.00
2017-09-30T09:48:32.785Z,3116.00
2017-09-30T09:49:32.789Z,2988.00
2017-09-30T09:50:32.792Z,2920.00
2017-09-30T09:51:32.796Z,2920.00
2017-09-30T09:52:32.799Z,3020.00
2017-09-30T09:53:32.803Z,3184.00
2017-09-30T09:54:32.807Z,3376.00
2017-09-30T09:55:32.811Z,3544.00
2017-09-30T09:56:32.813Z,3616.00
2017-09-30T09:57:32.817Z,3592.00
2017-09-30T09:58:32.820Z,3456.00
2017-09-30T09:59:32.825Z,3308.00
2017-09-30T10:00:32.828Z,3232.00
2017-09-30T10:01:32.831Z,3128.00
2017-09-30T10:02:32.835Z,3012.00
2017-09-30T10:03:32.839Z,2956.00
2017-09-30T10:04:32.841Z,3052.00
2017-09-30T10:05:32.845Z,3224.00
2017-09-30T10:06:32.848Z,3468.00
2017-09-30T10:07:32.854Z,3560.00
2017-09-30T10:08:32.854Z,3576.00
2017-09-30T10:09:32.860Z,3548.00
2017-09-30T10:10:32.864Z,3552.00
2017-09-30T10:11:32.868Z,3616.00
2017-09-30T10:12:32.870Z,3724.00
2017-09-30T10:13:32.873Z,3972.00
2017-09-30T10:14:32.877Z,4364.00
2017-09-30T10:15:32.881Z,4852.00
2017-09-30T10:16:32.884Z,5140.00
2017-09-30T10:17:32.887Z,5164.00
2017-09-30T10:18:32.891Z,5104.00
2017-09-30T10:19:32.896Z,5528.00
2017-09-30T10:20:32.898Z,5704.00
2017-09-30T10:21:32.902Z,5036.00
2017-09-30T10:22:32.906Z,4544.00
2017-09-30T10:23:32.912Z,4552.00
2017-09-30T10:24:32.914Z,4460.00
2017-09-30T10:25:32.915Z,3868.00
2017-09-30T10:26:32.919Z,3244.00
2017-09-30T10:27:32.925Z,2704.00
2017-09-30T10:28:32.929Z,2360.00
2017-09-30T10:29:32.930Z,2168.00
2017-09-30T10:30:32.935Z,2324.00
2017-09-30T10:31:32.939Z,2964.00
2017-09-30T10:32:32.943Z,3548.00
2017-09-30T10:33:32.947Z,4028.00
2017-09-30T10:34:32.968Z,4212.00
2017-09-30T10:35:32.955Z,4164.00
2017-09-30T10:36:32.957Z,3824.00
2017-09-30T10:37:32.961Z,3572.00
2017-09-30T10:38:32.964Z,3380.00
2017-09-30T10:39:32.968Z,3240.00
2017-09-30T10:40:32.972Z,3412.00
2017-09-30T10:41:32.976Z,3328.00
2017-09-30T10:42:32.980Z,3048.00
2017-09-30T10:43:32.984Z,2672.00
2017-09-30T10:44:32.986Z,2440.00
2017-09-30T10:45:32.991Z,2420.00
2017-09-30T10:46:32.994Z,2476.00
2017-09-30T10:47:32.998Z,2328.00
2017-09-30T10:48:33.001Z,2220.00
2017-09-30T10:49:33.004Z,2076.00
2017-09-30T10:50:33.009Z,1928.00
2017-09-30T10:51:33.012Z,1776.00
2017-09-30T10:52:33.016Z,1580.00
2017-09-30T10:53:33.019Z,1428.00
2017-09-30T10:54:33.023Z,1452.00
2017-09-30T10:55:33.027Z,1544.00
2017-09-30T10:56:33.028Z,1528.00
2017-09-30T10:57:33.033Z,1448.00
2017-09-30T10:58:33.036Z,1288.00
2017-09-30T10:59:33.040Z,1148.00
2017-09-30T11:00:33.044Z,1068.00
2017-09-30T11:01:33.049Z,1036.00
2017-09-30T11:02:33.051Z,1048.00
2017-09-30T11:03:33.054Z,1180.00
2017-09-30T11:04:33.056Z,1340.00
2017-09-30T11:05:33.062Z,1344.00
2017-09-30T11:06:33.063Z,1212.00
2017-09-30T11:07:33.073Z,976.00
2017-09-30T11:08:33.070Z,824.00
2017-09-30T11:09:33.073Z,804.00
2017-09-30T11:10:33.078Z,816.00
2017-09-30T11:11:33.082Z,972.00
2017-09-30T11:12:33.085Z,1116.00
2017-09-30T11:13:33.087Z,1148.00
2017-09-30T11:14:33.090Z,1076.00
2017-09-30T11:15:33.096Z,984.00
2017-09-30T11:16:33.098Z,912.00
2017-09-30T11:17:33.101Z,840.00
2017-09-30T11:18:33.104Z,808.00
2017-09-30T11:19:33.109Z,848.00
2017-09-30T11:20:33.111Z,852.00
2017-09-30T11:21:33.113Z,856.00
2017-09-30T11:22:33.118Z,908.00
2017-09-30T11:23:33.120Z,984.00
2017-09-30T11:24:33.124Z,1036.00
2017-09-30T11:25:33.128Z,1096.00
2017-09-30T11:26:33.130Z,1144.00
2017-09-30T11:27:33.136Z,1272.00
2017-09-30T11:28:33.136Z,1404.00
2017-09-30T11:29:33.142Z,1276.00
2017-09-30T11:30:33.144Z,1152.00
2017-09-30T11:31:33.147Z,1072.00
2017-09-30T11:32:33.150Z,856.00
2017-09-30T11:33:33.153Z,692.00
2017-09-30T11:34:33.157Z,632.00
2017-09-30T11:35:33.159Z,748.00
2017-09-30T11:36:33.163Z,684.00
2017-09-30T11:37:33.166Z,608.00
2017-09-30T11:38:33.169Z,572.00
2017-09-30T11:39:33.173Z,508.00
2017-09-30T11:40:33.175Z,428.00
2017-09-30T11:41:33.179Z,436.00
2017-09-30T11:42:33.181Z,536.00
2017-09-30T11:43:33.185Z,640.00
2017-09-30T11:44:33.186Z,636.00
2017-09-30T11:45:33.189Z,600.00
2017-09-30T11:46:33.192Z,688.00
2017-09-30T11:47:33.195Z,848.00
2017-09-30T11:48:33.198Z,1140.00
2017-09-30T11:49:33.201Z,1284.00
2017-09-30T11:50:33.205Z,892.00
2017-09-30T11:51:33.208Z,804.00
2017-09-30T11:52:33.211Z,772.00
2017-09-30T11:53:33.213Z,656.00
2017-09-30T11:54:33.216Z,844.00
2017-09-30T11:55:33.219Z,908.00
2017-09-30T11:56:33.220Z,956.00
2017-09-30T11:57:33.223Z,1120.00
2017-09-30T11:58:33.227Z,1372.00
2017-09-30T11:59:33.229Z,1612.00
2017-09-30T12:00:33.231Z,1848.00
2017-09-30T12:01:33.233Z,1988.00
2017-09-30T12:02:33.237Z,2060.00
2017-09-30T12:03:33.238Z,2112.00
2017-09-30T12:04:33.242Z,2168.00
2017-09-30T12:05:33.242Z,2288.00
2017-09-30T12:06:33.245Z,2404.00
2017-09-30T12:07:33.248Z,2508.00
2017-09-30T12:08:33.249Z,2540.00
2017-09-30T12:09:33.251Z,2508.00
2017-09-30T12:10:33.254Z,2488.00
2017-09-30T12:11:33.254Z,2504.00
2017-09-30T12:12:33.257Z,2496.00
2017-09-30T12:13:33.257Z,2516.00
2017-09-30T12:14:33.263Z,2492.00
2017-09-30T12:15:33.262Z,2468.00
2017-09-30T12:16:33.263Z,2372.00
2017-09-30T12:17:33.263Z,2192.00
2017-09-30T12:18:33.267Z,2044.00
2017-09-30T12:19:33.267Z,2292.00
2017-09-30T12:20:33.268Z,2120.00
2017-09-30T12:21:33.272Z,2476.00
2017-09-30T12:22:33.272Z,2220.00
2017-09-30T12:23:33.274Z,2228.00
2017-09-30T12:24:33.276Z,1960.00
2017-09-30T12:25:33.277Z,2056.00
2017-09-30T12:26:33.279Z,1996.00
2017-09-30T12:27:33.280Z,2076.00
2017-09-30T12:28:33.280Z,1760.00
2017-09-30T12:29:33.284Z,1952.00
2017-09-30T12:30:33.285Z,2452.00
2017-09-30T12:31:33.287Z,2476.00
2017-09-30T12:32:33.287Z,2012.00
2017-09-30T12:33:33.289Z,1804.00
2017-09-30T12:34:33.292Z,1808.00
2017-09-30T12:35:33.292Z,2560.00
2017-09-30T12:36:33.292Z,2124.00
2017-09-30T12:37:33.295Z,1636.00
2017-09-30T12:38:33.295Z,1304.00